sensor_id;sensor_type;location;lat;lon;timestamp;pressure;altitude;pressure_sealevel;temperature;humidity
16094;BME280;8151;47.824;12.092;2022-12-07T00:01:37;96213.97;;;4.36;84.57
16094;BME280;8151;47.824;12.092;2022-12-07T00:04:07;96212.03;;;4.38;84.45
16094;BME280;8151;47.824;12.092;2022-12-07T00:06:38;96217.28;;;4.38;84.48
16094;BME280;8151;47.824;12.092;2022-12-07T00:09:10;96218.13;;;4.38;84.59
16094;BME280;8151;47.824;12.092;2022-12-07T00:11:38;96217.03;;;4.41;84.43
16094;BME280;8151;47.824;12.092;2022-12-07T00:14:14;96217.84;;;4.41;84.20
16094;BME280;8151;47.824;12.092;2022-12-07T00:16:44;96212.63;;;4.41;84.57
16094;BME280;8151;47.824;12.092;2022-12-07T00:19:13;96217.84;;;4.41;84.58
16094;BME280;8151;47.824;12.092;2022-12-07T00:21:42;96215.09;;;4.43;84.32
16094;BME280;8151;47.824;12.092;2022-12-07T00:24:11;96202.69;;;4.45;84.63
16094;BME280;8151;47.824;12.092;2022-12-07T00:26:40;96212.91;;;4.48;84.73
16094;BME280;8151;47.824;12.092;2022-12-07T00:29:14;96212.06;;;4.47;84.19
16094;BME280;8151;47.824;12.092;2022-12-07T00:31:43;96212.06;;;4.47;84.92
16094;BME280;8151;47.824;12.092;2022-12-07T00:34:13;96202.56;;;4.46;84.61
16094;BME280;8151;47.824;12.092;2022-12-07T00:36:42;96204.22;;;4.47;84.85
16094;BME280;8151;47.824;12.092;2022-12-07T00:39:10;96202.44;;;4.48;84.88
16094;BME280;8151;47.824;12.092;2022-12-07T00:41:38;96204.22;;;4.47;84.38
16094;BME280;8151;47.824;12.092;2022-12-07T00:44:07;96203.25;;;4.48;84.89
16094;BME280;8151;47.824;12.092;2022-12-07T00:46:36;96200.91;;;4.45;84.29
16094;BME280;8151;47.824;12.092;2022-12-07T00:49:05;96195.78;;;4.44;84.65
16094;BME280;8151;47.824;12.092;2022-12-07T00:51:33;96196.91;;;4.41;84.89
16094;BME280;8151;47.824;12.092;2022-12-07T00:54:02;96202.81;;;4.43;84.97
16094;BME280;8151;47.824;12.092;2022-12-07T00:56:30;96206.13;;;4.45;84.68
16094;BME280;8151;47.824;12.092;2022-12-07T00:59:00;96202.56;;;4.46;84.83
16094;BME280;8151;47.824;12.092;2022-12-07T01:01:31;96202.56;;;4.46;84.31
16094;BME280;8151;47.824;12.092;2022-12-07T01:04:01;96203.38;;;4.47;84.69
16094;BME280;8151;47.824;12.092;2022-12-07T01:06:30;96203.38;;;4.47;84.77
16094;BME280;8151;47.824;12.092;2022-12-07T01:08:59;96202.56;;;4.46;84.45
16094;BME280;8151;47.824;12.092;2022-12-07T01:11:29;96203.50;;;4.45;84.26
16094;BME280;8151;47.824;12.092;2022-12-07T01:13:59;96193.03;;;4.45;84.26
16094;BME280;8151;47.824;12.092;2022-12-07T01:16:29;96202.69;;;4.45;84.24
16094;BME280;8151;47.824;12.092;2022-12-07T01:19:00;96203.50;;;4.45;84.18
16094;BME280;8151;47.824;12.092;2022-12-07T01:21:33;96207.69;;;4.48;84.73
16094;BME280;8151;47.824;12.092;2022-12-07T01:24:07;96206.00;;;4.47;84.50
16094;BME280;8151;47.824;12.092;2022-12-07T01:26:35;96202.44;;;4.48;84.22
16094;BME280;8151;47.824;12.092;2022-12-07T01:29:04;96209.44;;;4.47;84.98
16094;BME280;8151;47.824;12.092;2022-12-07T01:31:33;96205.19;;;4.46;84.74
16094;BME280;8151;47.824;12.092;2022-12-07T01:34:02;96201.88;;;4.44;84.33
16094;BME280;8151;47.824;12.092;2022-12-07T01:36:33;96200.06;;;4.45;84.30
16094;BME280;8151;47.824;12.092;2022-12-07T01:39:04;96200.22;;;4.43;84.77
16094;BME280;8151;47.824;12.092;2022-12-07T01:41:34;96199.25;;;4.44;84.33
16094;BME280;8151;47.824;12.092;2022-12-07T01:44:21;96188.63;;;4.46;84.98
16094;BME280;8151;47.824;12.092;2022-12-07T01:46:52;96189.47;;;4.46;84.90
16094;BME280;8151;47.824;12.092;2022-12-07T01:49:31;96198.28;;;4.45;85.03
16094;BME280;8151;47.824;12.092;2022-12-07T01:52:07;96193.84;;;4.46;84.53
16094;BME280;8151;47.824;12.092;2022-12-07T01:54:38;96191.41;;;4.44;84.96
16094;BME280;8151;47.824;12.092;2022-12-07T01:57:07;96196.63;;;4.44;84.99
16094;BME280;8151;47.824;12.092;2022-12-07T01:59:37;96193.84;;;4.46;84.25
16094;BME280;8151;47.824;12.092;2022-12-07T02:02:10;96194.03;;;4.44;84.57
16094;BME280;8151;47.824;12.092;2022-12-07T02:04:42;96194.97;;;4.43;84.75
16094;BME280;8151;47.824;12.092;2022-12-07T02:07:12;96194.97;;;4.43;84.39
16094;BME280;8151;47.824;12.092;2022-12-07T02:09:40;96193.31;;;4.42;84.59
16094;BME280;8151;47.824;12.092;2022-12-07T02:12:09;96197.59;;;4.43;85.10
16094;BME280;8151;47.824;12.092;2022-12-07T02:14:37;96194.16;;;4.43;85.01
16094;BME280;8151;47.824;12.092;2022-12-07T02:17:13;96182.84;;;4.42;84.60
16094;BME280;8151;47.824;12.092;2022-12-07T02:20:03;96184.63;;;4.42;84.75
16094;BME280;8151;47.824;12.092;2022-12-07T02:22:55;96192.47;;;4.42;84.87
16094;BME280;8151;47.824;12.092;2022-12-07T02:25:39;96187.25;;;4.42;84.90
16094;BME280;8151;47.824;12.092;2022-12-07T02:28:19;96177.88;;;4.39;84.84
16094;BME280;8151;47.824;12.092;2022-12-07T02:30:54;96188.47;;;4.38;84.68
16094;BME280;8151;47.824;12.092;2022-12-07T02:33:28;96185.72;;;4.39;84.89
16094;BME280;8151;47.824;12.092;2022-12-07T02:36:04;96187.53;;;4.39;84.88
16094;BME280;8151;47.824;12.092;2022-12-07T02:38:37;96191.94;;;4.38;85.28
16094;BME280;8151;47.824;12.092;2022-12-07T02:41:11;96185.84;;;4.38;85.22
16094;BME280;8151;47.824;12.092;2022-12-07T02:43:43;96183.22;;;4.38;84.64
16094;BME280;8151;47.824;12.092;2022-12-07T02:46:18;96180.47;;;4.39;84.79
16094;BME280;8151;47.824;12.092;2022-12-07T02:48:50;96179.53;;;4.40;85.07
16094;BME280;8151;47.824;12.092;2022-12-07T02:51:19;96175.94;;;4.41;85.08
16094;BME280;8151;47.824;12.092;2022-12-07T02:53:48;96178.44;;;4.43;85.19
16094;BME280;8151;47.824;12.092;2022-12-07T02:56:23;96179.25;;;4.43;85.17
16094;BME280;8151;47.824;12.092;2022-12-07T02:59:01;96178.31;;;4.44;84.66
16094;BME280;8151;47.824;12.092;2022-12-07T03:01:37;96172.09;;;4.45;84.71
16094;BME280;8151;47.824;12.092;2022-12-07T03:04:18;96179.00;;;4.46;84.88
16094;BME280;8151;47.824;12.092;2022-12-07T03:06:53;96169.47;;;4.45;84.60
16094;BME280;8151;47.824;12.092;2022-12-07T03:09:29;96170.44;;;4.44;85.13
16094;BME280;8151;47.824;12.092;2022-12-07T03:12:06;96159.97;;;4.44;84.54
16094;BME280;8151;47.824;12.092;2022-12-07T03:14:51;96164.22;;;4.45;85.25
16094;BME280;8151;47.824;12.092;2022-12-07T03:17:26;96171.25;;;4.45;85.21
16094;BME280;8151;47.824;12.092;2022-12-07T03:19:58;96170.44;;;4.44;85.10
16094;BME280;8151;47.824;12.092;2022-12-07T03:22:29;96172.09;;;4.45;84.96
16094;BME280;8151;47.824;12.092;2022-12-07T03:25:04;96172.91;;;4.46;84.36
16094;BME280;8151;47.824;12.092;2022-12-07T03:27:37;96172.91;;;4.46;84.74
16094;BME280;8151;47.824;12.092;2022-12-07T03:30:09;96176.50;;;4.45;84.86
16094;BME280;8151;47.824;12.092;2022-12-07T03:32:41;96173.88;;;4.45;85.01
16094;BME280;8151;47.824;12.092;2022-12-07T03:35:14;96171.25;;;4.45;85.25
16094;BME280;8151;47.824;12.092;2022-12-07T03:37:48;96170.44;;;4.44;84.56
16094;BME280;8151;47.824;12.092;2022-12-07T03:40:24;96167.81;;;4.44;84.62
16094;BME280;8151;47.824;12.092;2022-12-07T03:42:54;96161.72;;;4.44;84.55
16094;BME280;8151;47.824;12.092;2022-12-07T03:45:30;96161.88;;;4.42;85.29
16094;BME280;8151;47.824;12.092;2022-12-07T03:48:05;96162.84;;;4.41;85.20
16094;BME280;8151;47.824;12.092;2022-12-07T03:50:41;96167.25;;;4.41;85.18
16094;BME280;8151;47.824;12.092;2022-12-07T03:53:15;96166.44;;;4.40;84.57
16094;BME280;8151;47.824;12.092;2022-12-07T03:55:47;96170.56;;;4.43;84.91
16094;BME280;8151;47.824;12.092;2022-12-07T03:58:19;96161.72;;;4.44;84.89
16094;BME280;8151;47.824;12.092;2022-12-07T04:00:49;96166.97;;;4.44;84.49
16094;BME280;8151;47.824;12.092;2022-12-07T04:03:29;96154.84;;;4.43;84.95
16094;BME280;8151;47.824;12.092;2022-12-07T04:05:58;96155.81;;;4.42;85.09
16094;BME280;8151;47.824;12.092;2022-12-07T04:08:27;96164.50;;;4.42;84.92
16094;BME280;8151;47.824;12.092;2022-12-07T04:10:55;96152.22;;;4.43;85.11
16094;BME280;8151;47.824;12.092;2022-12-07T04:13:23;96147.00;;;4.43;84.59
16094;BME280;8151;47.824;12.092;2022-12-07T04:15:52;96155.66;;;4.43;85.19
16094;BME280;8151;47.824;12.092;2022-12-07T04:18:20;96153.06;;;4.43;84.53
16094;BME280;8151;47.824;12.092;2022-12-07T04:20:50;96159.41;;;4.41;85.22
16094;BME280;8151;47.824;12.092;2022-12-07T04:23:19;96153.34;;;4.40;84.72
16094;BME280;8151;47.824;12.092;2022-12-07T04:25:47;96158.59;;;4.40;84.79
16094;BME280;8151;47.824;12.092;2022-12-07T04:28:16;96154.28;;;4.39;84.73
16094;BME280;8151;47.824;12.092;2022-12-07T04:30:45;96148.22;;;4.39;84.62
16094;BME280;8151;47.824;12.092;2022-12-07T04:33:13;96154.16;;;4.41;85.11
16094;BME280;8151;47.824;12.092;2022-12-07T04:35:42;96148.09;;;4.40;84.69
16094;BME280;8151;47.824;12.092;2022-12-07T04:38:12;96157.72;;;4.40;84.85
16094;BME280;8151;47.824;12.092;2022-12-07T04:40:40;96154.16;;;4.41;85.06
16094;BME280;8151;47.824;12.092;2022-12-07T04:43:08;96157.59;;;4.41;85.24
16094;BME280;8151;47.824;12.092;2022-12-07T04:45:37;96155.28;;;4.38;85.17
16094;BME280;8151;47.824;12.092;2022-12-07T04:48:05;96151.09;;;4.36;85.03
16094;BME280;8151;47.824;12.092;2022-12-07T04:50:35;96143.78;;;4.29;84.96
16094;BME280;8151;47.824;12.092;2022-12-07T04:53:13;96148.59;;;4.24;84.85
16094;BME280;8151;47.824;12.092;2022-12-07T04:55:41;96147.78;;;4.24;84.79
16094;BME280;8151;47.824;12.092;2022-12-07T04:58:10;96144.22;;;4.25;85.36
16094;BME280;8151;47.824;12.092;2022-12-07T05:00:39;96141.59;;;4.25;84.84
16094;BME280;8151;47.824;12.092;2022-12-07T05:03:07;96148.47;;;4.26;85.25
16094;BME280;8151;47.824;12.092;2022-12-07T05:05:36;96148.34;;;4.27;84.90
16094;BME280;8151;47.824;12.092;2022-12-07T05:08:07;96150.41;;;4.24;85.17
16094;BME280;8151;47.824;12.092;2022-12-07T05:10:43;96147.91;;;4.22;85.36
16094;BME280;8151;47.824;12.092;2022-12-07T05:13:12;96147.09;;;4.22;84.94
16094;BME280;8151;47.824;12.092;2022-12-07T05:15:40;96148.06;;;4.21;85.41
16094;BME280;8151;47.824;12.092;2022-12-07T05:18:09;96150.53;;;4.22;85.23
16094;BME280;8151;47.824;12.092;2022-12-07T05:20:39;96147.78;;;4.24;85.45
16094;BME280;8151;47.824;12.092;2022-12-07T05:23:08;96146.13;;;4.23;85.54
16094;BME280;8151;47.824;12.092;2022-12-07T05:25:37;96137.44;;;4.22;84.99
16094;BME280;8151;47.824;12.092;2022-12-07T05:28:07;96141.03;;;4.21;85.23
16094;BME280;8151;47.824;12.092;2022-12-07T05:30:36;96140.75;;;4.24;85.12
16094;BME280;8151;47.824;12.092;2022-12-07T05:33:05;96144.06;;;4.26;85.15
16094;BME280;8151;47.824;12.092;2022-12-07T05:35:34;96149.16;;;4.28;85.41
16094;BME280;8151;47.824;12.092;2022-12-07T05:38:05;96144.75;;;4.28;85.43
16094;BME280;8151;47.824;12.092;2022-12-07T05:40:33;96144.91;;;4.27;84.82
16094;BME280;8151;47.824;12.092;2022-12-07T05:43:01;96143.66;;;4.21;85.60
16094;BME280;8151;47.824;12.092;2022-12-07T05:45:32;96145.44;;;4.21;85.67
16094;BME280;8151;47.824;12.092;2022-12-07T05:48:01;96141.03;;;4.21;85.32
16094;BME280;8151;47.824;12.092;2022-12-07T05:50:29;96151.22;;;4.24;85.33
16094;BME280;8151;47.824;12.092;2022-12-07T05:52:57;96145.03;;;4.25;85.45
16094;BME280;8151;47.824;12.092;2022-12-07T05:55:26;96139.66;;;4.27;84.99
16094;BME280;8151;47.824;12.092;2022-12-07T05:57:54;96145.97;;;4.24;85.18
16094;BME280;8151;47.824;12.092;2022-12-07T06:00:41;96151.09;;;4.26;85.61
16094;BME280;8151;47.824;12.092;2022-12-07T06:03:17;96147.66;;;4.25;85.33
16094;BME280;8151;47.824;12.092;2022-12-07T06:05:45;96148.34;;;4.27;85.08
16094;BME280;8151;47.824;12.092;2022-12-07T06:08:14;96156.06;;;4.29;85.51
16094;BME280;8151;47.824;12.092;2022-12-07T06:10:43;96154.28;;;4.29;85.46
16094;BME280;8151;47.824;12.092;2022-12-07T06:13:11;96145.59;;;4.29;85.30
16094;BME280;8151;47.824;12.092;2022-12-07T06:15:38;96156.31;;;4.26;85.74
16094;BME280;8151;47.824;12.092;2022-12-07T06:18:08;96155.63;;;4.24;85.35
16094;BME280;8151;47.824;12.092;2022-12-07T06:20:37;96170.41;;;4.25;85.88
16094;BME280;8151;47.824;12.092;2022-12-07T06:23:05;96158.94;;;4.26;85.59
16094;BME280;8151;47.824;12.092;2022-12-07T06:25:34;96170.94;;;4.28;85.39
16094;BME280;8151;47.824;12.092;2022-12-07T06:28:03;96168.19;;;4.30;85.48
16094;BME280;8151;47.824;12.092;2022-12-07T06:30:31;96169.84;;;4.31;85.26
16094;BME280;8151;47.824;12.092;2022-12-07T06:32:59;96175.91;;;4.31;85.24
16094;BME280;8151;47.824;12.092;2022-12-07T06:35:29;96175.78;;;4.33;85.37
16094;BME280;8151;47.824;12.092;2022-12-07T06:37:57;96173.16;;;4.33;85.21
16094;BME280;8151;47.824;12.092;2022-12-07T06:40:26;96175.09;;;4.31;85.79
16094;BME280;8151;47.824;12.092;2022-12-07T06:42:54;96183.91;;;4.30;85.81
16094;BME280;8151;47.824;12.092;2022-12-07T06:45:22;96177.72;;;4.31;85.57
16094;BME280;8151;47.824;12.092;2022-12-07T06:47:51;96178.66;;;4.30;85.51
16094;BME280;8151;47.824;12.092;2022-12-07T06:50:19;96182.13;;;4.30;85.79
16094;BME280;8151;47.824;12.092;2022-12-07T06:52:50;96189.69;;;4.33;85.72
16094;BME280;8151;47.824;12.092;2022-12-07T06:55:18;96192.19;;;4.35;86.05
16094;BME280;8151;47.824;12.092;2022-12-07T06:57:47;96189.13;;;4.30;85.53
16094;BME280;8151;47.824;12.092;2022-12-07T07:00:16;96200.16;;;4.24;86.08
16094;BME280;8151;47.824;12.092;2022-12-07T07:02:48;96205.09;;;4.17;86.50
16094;BME280;8151;47.824;12.092;2022-12-07T07:05:17;96208.53;;;4.18;86.74
16094;BME280;8151;47.824;12.092;2022-12-07T07:07:45;96215.94;;;4.12;86.53
16094;BME280;8151;47.824;12.092;2022-12-07T07:10:35;96219.59;;;3.90;86.65
16094;BME280;8151;47.824;12.092;2022-12-07T07:13:04;96222.94;;;3.71;86.92
16094;BME280;8151;47.824;12.092;2022-12-07T07:15:33;96226.41;;;3.51;86.80
16094;BME280;8151;47.824;12.092;2022-12-07T07:18:01;96234.31;;;3.40;87.55
16094;BME280;8151;47.824;12.092;2022-12-07T07:20:34;96226.13;;;3.33;87.19
16094;BME280;8151;47.824;12.092;2022-12-07T07:23:03;96219.19;;;3.22;87.27
16094;BME280;8151;47.824;12.092;2022-12-07T07:25:32;96221.31;;;3.17;87.47
16094;BME280;8151;47.824;12.092;2022-12-07T07:28:02;96223.81;;;3.19;87.60
16094;BME280;8151;47.824;12.092;2022-12-07T07:30:31;96222.72;;;3.21;86.75
16094;BME280;8151;47.824;12.092;2022-12-07T07:33:01;96218.91;;;3.25;87.35
16094;BME280;8151;47.824;12.092;2022-12-07T07:35:31;96228.03;;;3.31;86.88
16094;BME280;8151;47.824;12.092;2022-12-07T07:38:01;96233.97;;;3.33;86.85
16094;BME280;8151;47.824;12.092;2022-12-07T07:40:30;96231.34;;;3.33;86.32
16094;BME280;8151;47.824;12.092;2022-12-07T07:42:58;96226.25;;;3.31;86.63
16094;BME280;8151;47.824;12.092;2022-12-07T07:45:28;96227.91;;;3.32;86.53
16094;BME280;8151;47.824;12.092;2022-12-07T07:47:56;96232.75;;;3.37;86.46
16094;BME280;8151;47.824;12.092;2022-12-07T07:50:25;96242.00;;;3.41;86.30
16094;BME280;8151;47.824;12.092;2022-12-07T07:52:53;96240.81;;;3.45;86.64
16094;BME280;8151;47.824;12.092;2022-12-07T07:55:22;96250.44;;;3.45;86.49
16094;BME280;8151;47.824;12.092;2022-12-07T07:57:50;96249.59;;;3.44;86.68
16094;BME280;8151;47.824;12.092;2022-12-07T08:00:22;96254.72;;;3.46;86.36
16094;BME280;8151;47.824;12.092;2022-12-07T08:02:51;96251.97;;;3.47;86.26
16094;BME280;8151;47.824;12.092;2022-12-07T08:05:20;96259.69;;;3.49;86.58
16094;BME280;8151;47.824;12.092;2022-12-07T08:07:48;96256.13;;;3.50;86.42
16094;BME280;8151;47.824;12.092;2022-12-07T08:10:17;96262.16;;;3.50;86.36
16094;BME280;8151;47.824;12.092;2022-12-07T08:12:45;96262.88;;;3.52;86.64
16094;BME280;8151;47.824;12.092;2022-12-07T08:15:31;96269.19;;;3.50;86.52
16094;BME280;8151;47.824;12.092;2022-12-07T08:18:01;96263.03;;;3.51;86.66
16094;BME280;8151;47.824;12.092;2022-12-07T08:20:30;96263.84;;;3.51;86.46
16094;BME280;8151;47.824;12.092;2022-12-07T08:23:00;96268.09;;;3.52;86.55
16094;BME280;8151;47.824;12.092;2022-12-07T08:25:28;96276.53;;;3.56;86.37
16094;BME280;8151;47.824;12.092;2022-12-07T08:27:57;96271.19;;;3.58;86.57
16094;BME280;8151;47.824;12.092;2022-12-07T08:30:25;96267.59;;;3.59;86.18
16094;BME280;8151;47.824;12.092;2022-12-07T08:32:53;96269.25;;;3.60;86.46
16094;BME280;8151;47.824;12.092;2022-12-07T08:35:23;96264.03;;;3.60;86.06
16094;BME280;8151;47.824;12.092;2022-12-07T08:37:52;96267.47;;;3.60;86.33
16094;BME280;8151;47.824;12.092;2022-12-07T08:40:20;96269.03;;;3.63;86.09
16094;BME280;8151;47.824;12.092;2022-12-07T08:42:49;96265.56;;;3.62;86.05
16094;BME280;8151;47.824;12.092;2022-12-07T08:45:19;96268.88;;;3.64;85.89
16094;BME280;8151;47.824;12.092;2022-12-07T08:47:57;96268.88;;;3.64;86.22
16094;BME280;8151;47.824;12.092;2022-12-07T08:50:31;96276.72;;;3.64;86.11
16094;BME280;8151;47.824;12.092;2022-12-07T08:53:01;96278.28;;;3.67;86.16
16094;BME280;8151;47.824;12.092;2022-12-07T08:55:31;96278.28;;;3.67;86.40
16094;BME280;8151;47.824;12.092;2022-12-07T08:58:02;96287.75;;;3.68;86.18
16094;BME280;8151;47.824;12.092;2022-12-07T09:00:30;96281.47;;;3.70;86.27
16094;BME280;8151;47.824;12.092;2022-12-07T09:02:59;96284.91;;;3.71;86.44
16094;BME280;8151;47.824;12.092;2022-12-07T09:05:28;96283.00;;;3.73;86.06
16094;BME280;8151;47.824;12.092;2022-12-07T09:08:00;96280.38;;;3.73;86.36
16094;BME280;8151;47.824;12.092;2022-12-07T09:10:29;96277.63;;;3.74;86.46
16094;BME280;8151;47.824;12.092;2022-12-07T09:12:59;96279.16;;;3.77;86.34
16094;BME280;8151;47.824;12.092;2022-12-07T09:15:28;96277.25;;;3.79;86.00
16094;BME280;8151;47.824;12.092;2022-12-07T09:17:56;96281.38;;;3.82;85.98
16094;BME280;8151;47.824;12.092;2022-12-07T09:20:25;96276.03;;;3.83;86.17
16094;BME280;8151;47.824;12.092;2022-12-07T09:22:55;96278.50;;;3.85;86.04
16094;BME280;8151;47.824;12.092;2022-12-07T09:25:24;96277.69;;;3.84;86.16
16094;BME280;8151;47.824;12.092;2022-12-07T09:27:56;96273.53;;;3.82;85.64
16094;BME280;8151;47.824;12.092;2022-12-07T09:30:25;96276.13;;;3.82;85.91
16094;BME280;8151;47.824;12.092;2022-12-07T09:32:55;96261.53;;;3.79;85.73
16094;BME280;8151;47.824;12.092;2022-12-07T09:35:25;96263.34;;;3.79;86.04
16094;BME280;8151;47.824;12.092;2022-12-07T09:37:55;96262.50;;;3.78;85.58
16094;BME280;8151;47.824;12.092;2022-12-07T09:40:24;96265.13;;;3.78;86.15
16094;BME280;8151;47.824;12.092;2022-12-07T09:42:54;96262.50;;;3.78;86.32
16094;BME280;8151;47.824;12.092;2022-12-07T09:45:25;96256.41;;;3.78;85.90
16094;BME280;8151;47.824;12.092;2022-12-07T09:47:55;96254.66;;;3.78;85.88
16094;BME280;8151;47.824;12.092;2022-12-07T09:50:25;96251.19;;;3.78;86.23
16094;BME280;8151;47.824;12.092;2022-12-07T09:53:07;96244.19;;;3.78;86.10
16094;BME280;8151;47.824;12.092;2022-12-07T09:55:38;96248.56;;;3.78;85.60
16094;BME280;8151;47.824;12.092;2022-12-07T09:58:12;96242.41;;;3.79;85.86
16094;BME280;8151;47.824;12.092;2022-12-07T10:00:45;96249.56;;;3.77;85.72
16094;BME280;8151;47.824;12.092;2022-12-07T10:03:14;96234.91;;;3.74;85.80
16094;BME280;8151;47.824;12.092;2022-12-07T10:05:46;96236.00;;;3.71;86.16
16094;BME280;8151;47.824;12.092;2022-12-07T10:08:16;96232.56;;;3.71;86.04
16094;BME280;8151;47.824;12.092;2022-12-07T10:10:50;96234.22;;;3.72;85.91
16094;BME280;8151;47.824;12.092;2022-12-07T10:13:21;96225.53;;;3.71;86.08
16094;BME280;8151;47.824;12.092;2022-12-07T10:15:52;96223.91;;;3.70;85.83
16094;BME280;8151;47.824;12.092;2022-12-07T10:18:27;96225.53;;;3.71;85.63
16094;BME280;8151;47.824;12.092;2022-12-07T10:21:10;96215.91;;;3.72;85.86
16094;BME280;8151;47.824;12.092;2022-12-07T10:23:41;96216.06;;;3.70;85.50
16094;BME280;8151;47.824;12.092;2022-12-07T10:26:30;96206.41;;;3.71;85.49
16094;BME280;8151;47.824;12.092;2022-12-07T10:28:59;96204.88;;;3.68;85.88
16094;BME280;8151;47.824;12.092;2022-12-07T10:31:29;96198.69;;;3.69;85.27
16094;BME280;8151;47.824;12.092;2022-12-07T10:33:59;96197.75;;;3.70;85.32
16094;BME280;8151;47.824;12.092;2022-12-07T10:36:34;96201.06;;;3.72;85.11
16094;BME280;8151;47.824;12.092;2022-12-07T10:39:10;96199.13;;;3.74;85.00
16094;BME280;8151;47.824;12.092;2022-12-07T10:41:53;96192.69;;;3.79;85.32
16094;BME280;8151;47.824;12.092;2022-12-07T10:44:24;96195.00;;;3.82;85.08
16094;BME280;8151;47.824;12.092;2022-12-07T10:50:28;96190.69;;;3.92;84.65
16094;BME280;8151;47.824;12.092;2022-12-07T10:59:23;96189.63;;;4.04;84.49
16094;BME280;8151;47.824;12.092;2022-12-07T11:02:01;96198.03;;;4.08;84.88
16094;BME280;8151;47.824;12.092;2022-12-07T11:04:41;96186.34;;;4.12;84.41
16094;BME280;8151;47.824;12.092;2022-12-07T11:07:22;96191.31;;;4.15;84.72
16094;BME280;8151;47.824;12.092;2022-12-07T11:10:05;96186.63;;;4.19;84.39
16094;BME280;8151;47.824;12.092;2022-12-07T11:13:01;96174.94;;;4.23;84.43
16094;BME280;8151;47.824;12.092;2022-12-07T11:15:45;96172.84;;;4.26;84.62
16094;BME280;8151;47.824;12.092;2022-12-07T11:18:25;96163.06;;;4.28;83.98
16094;BME280;8151;47.824;12.092;2022-12-07T11:21:03;96164.63;;;4.31;84.10
16094;BME280;8151;47.824;12.092;2022-12-07T11:23:43;96165.44;;;4.31;84.03
16094;BME280;8151;47.824;12.092;2022-12-07T11:26:24;96163.63;;;4.32;84.36
16094;BME280;8151;47.824;12.092;2022-12-07T11:29:15;96153.16;;;4.32;84.22
16094;BME280;8151;47.824;12.092;2022-12-07T11:31:56;96152.78;;;4.37;84.29
16094;BME280;8151;47.824;12.092;2022-12-07T11:34:35;96149.19;;;4.38;84.12
16094;BME280;8151;47.824;12.092;2022-12-07T11:37:09;96146.56;;;4.38;84.27
16094;BME280;8151;47.824;12.092;2022-12-07T11:39:44;96138.56;;;4.39;83.84
16094;BME280;8151;47.824;12.092;2022-12-07T11:42:20;96136.78;;;4.40;84.43
16094;BME280;8151;47.824;12.092;2022-12-07T11:44:53;96143.69;;;4.41;84.03
16094;BME280;8151;47.824;12.092;2022-12-07T11:47:33;96138.44;;;4.41;83.99
16094;BME280;8151;47.824;12.092;2022-12-07T11:50:10;96130.47;;;4.42;83.65
16094;BME280;8151;47.824;12.092;2022-12-07T11:52:47;96127.56;;;4.45;83.51
16094;BME280;8151;47.824;12.092;2022-12-07T11:55:21;96120.66;;;4.44;84.06
16094;BME280;8151;47.824;12.092;2022-12-07T11:57:58;96116.25;;;4.45;83.32
16094;BME280;8151;47.824;12.092;2022-12-07T12:00:28;96118.06;;;4.44;83.87
16094;BME280;8151;47.824;12.092;2022-12-07T12:03:02;96109.22;;;4.45;83.93
16094;BME280;8151;47.824;12.092;2022-12-07T12:05:32;96110.59;;;4.49;84.04
16094;BME280;8151;47.824;12.092;2022-12-07T12:08:05;96110.34;;;4.52;83.82
16094;BME280;8151;47.824;12.092;2022-12-07T12:11:05;96111.97;;;4.53;83.60
16094;BME280;8151;47.824;12.092;2022-12-07T12:14:02;96109.22;;;4.55;83.48
16094;BME280;8151;47.824;12.092;2022-12-07T12:17:23;96108.41;;;4.54;83.67
16094;BME280;8151;47.824;12.092;2022-12-07T12:20:05;96110.88;;;4.56;83.18
16094;BME280;8151;47.824;12.092;2022-12-07T12:22:42;96109.91;;;4.57;83.44
16094;BME280;8151;47.824;12.092;2022-12-07T12:25:27;96103.84;;;4.57;83.21
16094;BME280;8151;47.824;12.092;2022-12-07T12:27:58;96104.66;;;4.57;83.08
16094;BME280;8151;47.824;12.092;2022-12-07T12:30:34;96101.91;;;4.59;83.06
16094;BME280;8151;47.824;12.092;2022-12-07T12:33:13;96104.28;;;4.62;83.17
16094;BME280;8151;47.824;12.092;2022-12-07T12:35:44;96099.03;;;4.62;83.34
16094;BME280;8151;47.824;12.092;2022-12-07T12:38:47;96098.75;;;4.65;83.08
16094;BME280;8151;47.824;12.092;2022-12-07T12:44:41;96100.13;;;4.69;82.83
16094;BME280;8151;47.824;12.092;2022-12-07T12:47:52;96094.75;;;4.70;83.17
16094;BME280;8151;47.824;12.092;2022-12-07T12:50:27;96101.78;;;4.70;83.10
16094;BME280;8151;47.824;12.092;2022-12-07T12:53:01;96080.81;;;4.70;83.75
16094;BME280;8151;47.824;12.092;2022-12-07T12:55:54;96089.38;;;4.72;83.08
16094;BME280;8151;47.824;12.092;2022-12-07T12:58:34;96084.94;;;4.72;83.67
16094;BME280;8151;47.824;12.092;2022-12-07T13:01:38;96083.16;;;4.73;82.99
16094;BME280;8151;47.824;12.092;2022-12-07T13:04:26;96084.13;;;4.72;82.92
16094;BME280;8151;47.824;12.092;2022-12-07T13:06:55;96079.31;;;4.67;83.03
16094;BME280;8151;47.824;12.092;2022-12-07T13:09:27;96079.72;;;4.63;83.05
16094;BME280;8151;47.824;12.092;2022-12-07T13:12:01;96079.84;;;4.61;83.22
16094;BME280;8151;47.824;12.092;2022-12-07T13:14:52;96064.81;;;4.63;83.48
16094;BME280;8151;47.824;12.092;2022-12-07T13:17:58;96076.81;;;4.66;83.58
16094;BME280;8151;47.824;12.092;2022-12-07T13:20:45;96075.56;;;4.70;83.77
16094;BME280;8151;47.824;12.092;2022-12-07T13:23:16;96074.31;;;4.74;82.82
16094;BME280;8151;47.824;12.092;2022-12-07T13:25:55;96076.69;;;4.77;83.55
16094;BME280;8151;47.824;12.092;2022-12-07T13:28:33;96070.47;;;4.78;83.52
16094;BME280;8151;47.824;12.092;2022-12-07T13:31:13;96072.13;;;4.79;82.87
16094;BME280;8151;47.824;12.092;2022-12-07T13:33:44;96074.44;;;4.82;83.29
16094;BME280;8151;47.824;12.092;2022-12-07T13:36:18;96070.06;;;4.83;83.48
16094;BME280;8151;47.824;12.092;2022-12-07T13:38:50;96068.25;;;4.83;83.59
16094;BME280;8151;47.824;12.092;2022-12-07T13:41:22;96065.63;;;4.83;83.24
16094;BME280;8151;47.824;12.092;2022-12-07T13:43:54;96062.03;;;4.84;83.32
16094;BME280;8151;47.824;12.092;2022-12-07T13:46:34;96063.69;;;4.85;83.38
16094;BME280;8151;47.824;12.092;2022-12-07T13:49:16;96066.31;;;4.85;83.20
16094;BME280;8151;47.824;12.092;2022-12-07T13:51:45;96058.47;;;4.85;83.36
16094;BME280;8151;47.824;12.092;2022-12-07T13:54:14;96058.47;;;4.85;83.53